Kapetan Fotis — SY5230 — position and weather

sailwx.info

Track history (hours):
 
Tides and Currents Weather Stations Pressure Air Temp Water Temp Dewpoint Dewpoint Depression Visibility Wind Speed Wind Dir Waves Ship Positions

Kapetan Fotis

Last reported at 2018-May-20 10:28 UTC. Time now 2018-May-20 21:49 UTC.
Position N 40°16' E 024°09'.

Length 33 m; draft 2.5 m.

Type: Passenger vessel. MMSI: 237813500.

Date/timePositionNaut miles runAvg speedWind from/ knotsBaromVisibWave heightAir tempDewpointWater temp
2018-May-20 10:28N 40°16' E 024°09'5 9.1
2018-May-20 09:54N 40°12' E 024°13'2 4.7
2018-May-20 09:25N 40°10' E 024°15'4 9.7
2018-May-20 09:00N 40°14' E 024°12'4 8.9
2018-May-20 08:30N 40°17' E 024°07'610.4
2018-May-20 07:58N 40°18' E 024°00'6 0.3
2018-May-19 10:25N 40°16' E 024°08'4 8.9
2018-May-19 09:59N 40°13' E 024°12'0 0.1
2018-May-19 08:57N 40°13' E 024°12'4 8.7
2018-May-19 08:30N 40°16' E 024°09'510.2
2018-May-19 08:00N 40°17' E 024°02'7 0.3
2018-May-18 11:49N 40°22' E 023°55'2 3.5
2018-May-18 11:19N 40°20' E 023°56'8 8.6
2018-May-18 10:24N 40°16' E 024°05'411.1
2018-May-18 10:00N 40°14' E 024°09'611.2
2018-May-18 09:28N 40°10' E 024°16'5 8.0
2018-May-18 08:54N 40°14' E 024°12'4 9.4
2018-May-18 08:30N 40°16' E 024°09'610.4
2018-May-18 07:54N 40°18' E 024°01'5 0.3
2018-May-17 15:02N 40°20' E 023°55'110.8
2018-May-17 14:59N 40°20' E 023°56'3 6.2
2018-May-17 14:26N 40°18' E 023°60'611.1
2018-May-17 13:56N 40°15' E 024°06'510.9
2018-May-17 13:28N 40°13' E 024°11'510.6
2018-May-17 12:59N 40°09' E 024°17'510.3
2018-May-17 12:29N 40°13' E 024°12'5 9.9
2018-May-17 12:00N 40°17' E 024°08'5 3.9
2018-May-17 10:43N 40°18' E 024°01'311.0
2018-May-17 10:26N 40°16' E 024°05'510.7
2018-May-17 10:00N 40°13' E 024°10'510.7
2018-May-17 09:30N 40°10' E 024°15'4 6.4
2018-May-17 08:54N 40°13' E 024°12'410.1
2018-May-17 08:30N 40°16' E 024°09'14 0.8
2018-May-16 14:30N 40°19' E 023°51'6 5.3
2018-May-16 13:21N 40°15' E 023°45'12 4.0
2018-May-16 10:27N 40°19' E 023°60'511.0
2018-May-16 09:57N 40°17' E 024°07'510.3
2018-May-16 09:28N 40°14' E 024°12'5 9.9
2018-May-16 08:56N 40°10' E 024°16'610.5
2018-May-16 08:23N 40°11' E 024°09'410.7
2018-May-16 07:59N 40°12' E 024°04'510.7
2018-May-16 07:30N 40°13' E 023°57'510.9
2018-May-16 07:00N 40°14' E 023°50'9 3.5
2018-May-16 04:30N 40°22' E 023°55'2 0.1
2018-May-15 15:00N 40°20' E 023°55'4 6.6
2018-May-15 14:24N 40°19' E 023°60'510.4
2018-May-15 13:57N 40°16' E 024°05'510.6
2018-May-15 13:29N 40°13' E 024°10'610.7
2018-May-15 12:57N 40°10' E 024°16'510.1
2018-May-15 12:28N 40°13' E 024°12'510.6
2018-May-15 12:00N 40°17' E 024°07'611.0
2018-May-15 11:26N 40°19' E 023°60'0 0.3
2018-May-15 10:55N 40°19' E 023°60'410.2
2018-May-15 10:30N 40°16' E 024°04'510.4
2018-May-15 10:00N 40°13' E 024°10'510.4
2018-May-15 09:30N 40°10' E 024°16'4 7.5
2018-May-15 08:55N 40°14' E 024°12'410.5
2018-May-15 08:30N 40°17' E 024°08'610.9
2018-May-15 07:58N 40°18' E 024°00'2 0.1
2018-May-14 14:06N 40°17' E 024°02'210.7
2018-May-14 13:53N 40°16' E 024°05'410.8
2018-May-14 13:30N 40°14' E 024°09'611.1
2018-May-14 13:00N 40°10' E 024°15'6 8.6
2018-May-14 12:18N 40°15' E 024°11'310.5
2018-May-14 12:00N 40°17' E 024°07'6 5.3
2018-May-14 10:56N 40°18' E 023°60'510.8
2018-May-14 10:30N 40°16' E 024°05'510.8
2018-May-14 10:00N 40°13' E 024°11'5 9.9
2018-May-14 09:28N 40°09' E 024°16'510.5
2018-May-14 08:58N 40°14' E 024°12'510.1
2018-May-14 08:30N 40°17' E 024°07'2 0.1
2018-May-13 13:52N 40°16' E 024°06'411.2
2018-May-13 13:30N 40°13' E 024°10'611.1
2018-May-13 12:58N 40°10' E 024°16'7 9.7
2018-May-13 12:13N 40°15' E 024°10'310.4
2018-May-13 11:58N 40°17' E 024°07'3 1.4
2018-May-13 10:03N 40°14' E 024°09'110.9
2018-May-13 10:00N 40°14' E 024°09'710.9
2018-May-13 09:24N 40°10' E 024°16'5 8.3
2018-May-13 08:51N 40°13' E 024°12'410.7
2018-May-13 08:30N 40°16' E 024°09'610.7
2018-May-13 07:55N 40°18' E 024°01'4 0.2
2018-May-12 14:03N 40°16' E 024°06'110.7
2018-May-12 13:59N 40°15' E 024°06'611.2
2018-May-12 13:27N 40°12' E 024°13'2 5.0
2018-May-12 13:01N 40°11' E 024°15'6 9.8
2018-May-12 12:25N 40°15' E 024°11'0 0.0
2018-May-12 10:11N 40°15' E 024°10'2 8.4
2018-May-12 09:58N 40°14' E 024°12'610.3
2018-May-12 09:26N 40°10' E 024°17'7 9.4
2018-May-12 08:41N 40°15' E 024°11'1 6.3
2018-May-12 08:29N 40°16' E 024°10'3 0.1
2018-May-11 10:18N 40°15' E 024°06'310.8
2018-May-11 09:59N 40°13' E 024°10'611.0
2018-May-11 09:26N 40°10' E 024°16'3 6.4
2018-May-11 09:00N 40°11' E 024°13'510.6
2018-May-11 08:30N 40°16' E 024°10'  
Track history (hours):
 
Tides and Currents Weather Stations Pressure Air Temp Water Temp Dewpoint Dewpoint Depression Visibility Wind Speed Wind Dir Waves Ship Positions

Kapetan Fotis

Last reported at 2018-May-20 10:28 UTC. Time now 2018-May-20 21:49 UTC.
Position N 40°16' E 024°09'.

Length 33 m; draft 2.5 m.

Type: Passenger vessel. MMSI: 237813500.

Date/timePositionNaut miles runAvg speedWind from/ knotsBaromVisibWave heightAir tempDewpointWater temp
2018-May-20 10:28N 40°16' E 024°09'5 9.1
2018-May-20 09:54N 40°12' E 024°13'2 4.7
2018-May-20 09:25N 40°10' E 024°15'4 9.7
2018-May-20 09:00N 40°14' E 024°12'4 8.9
2018-May-20 08:30N 40°17' E 024°07'610.4
2018-May-20 07:58N 40°18' E 024°00'6 0.3
2018-May-19 10:25N 40°16' E 024°08'4 8.9
2018-May-19 09:59N 40°13' E 024°12'0 0.1
2018-May-19 08:57N 40°13' E 024°12'4 8.7
2018-May-19 08:30N 40°16' E 024°09'510.2
2018-May-19 08:00N 40°17' E 024°02'7 0.3
2018-May-18 11:49N 40°22' E 023°55'2 3.5
2018-May-18 11:19N 40°20' E 023°56'8 8.6
2018-May-18 10:24N 40°16' E 024°05'411.1
2018-May-18 10:00N 40°14' E 024°09'611.2
2018-May-18 09:28N 40°10' E 024°16'5 8.0
2018-May-18 08:54N 40°14' E 024°12'4 9.4
2018-May-18 08:30N 40°16' E 024°09'610.4
2018-May-18 07:54N 40°18' E 024°01'5 0.3
2018-May-17 15:02N 40°20' E 023°55'110.8
2018-May-17 14:59N 40°20' E 023°56'3 6.2
2018-May-17 14:26N 40°18' E 023°60'611.1
2018-May-17 13:56N 40°15' E 024°06'510.9
2018-May-17 13:28N 40°13' E 024°11'510.6
2018-May-17 12:59N 40°09' E 024°17'510.3
2018-May-17 12:29N 40°13' E 024°12'5 9.9
2018-May-17 12:00N 40°17' E 024°08'5 3.9
2018-May-17 10:43N 40°18' E 024°01'311.0
2018-May-17 10:26N 40°16' E 024°05'510.7
2018-May-17 10:00N 40°13' E 024°10'510.7
2018-May-17 09:30N 40°10' E 024°15'4 6.4
2018-May-17 08:54N 40°13' E 024°12'410.1
2018-May-17 08:30N 40°16' E 024°09'14 0.8
2018-May-16 14:30N 40°19' E 023°51'6 5.3
2018-May-16 13:21N 40°15' E 023°45'12 4.0
2018-May-16 10:27N 40°19' E 023°60'511.0
2018-May-16 09:57N 40°17' E 024°07'510.3
2018-May-16 09:28N 40°14' E 024°12'5 9.9
2018-May-16 08:56N 40°10' E 024°16'610.5
2018-May-16 08:23N 40°11' E 024°09'410.7
2018-May-16 07:59N 40°12' E 024°04'510.7
2018-May-16 07:30N 40°13' E 023°57'510.9
2018-May-16 07:00N 40°14' E 023°50'9 3.5
2018-May-16 04:30N 40°22' E 023°55'2 0.1
2018-May-15 15:00N 40°20' E 023°55'4 6.6
2018-May-15 14:24N 40°19' E 023°60'510.4
2018-May-15 13:57N 40°16' E 024°05'510.6
2018-May-15 13:29N 40°13' E 024°10'610.7
2018-May-15 12:57N 40°10' E 024°16'510.1
2018-May-15 12:28N 40°13' E 024°12'510.6
2018-May-15 12:00N 40°17' E 024°07'611.0
2018-May-15 11:26N 40°19' E 023°60'0 0.3
2018-May-15 10:55N 40°19' E 023°60'410.2
2018-May-15 10:30N 40°16' E 024°04'510.4
2018-May-15 10:00N 40°13' E 024°10'510.4
2018-May-15 09:30N 40°10' E 024°16'4 7.5
2018-May-15 08:55N 40°14' E 024°12'410.5
2018-May-15 08:30N 40°17' E 024°08'610.9
2018-May-15 07:58N 40°18' E 024°00'2 0.1
2018-May-14 14:06N 40°17' E 024°02'210.7
2018-May-14 13:53N 40°16' E 024°05'410.8
2018-May-14 13:30N 40°14' E 024°09'611.1
2018-May-14 13:00N 40°10' E 024°15'6 8.6
2018-May-14 12:18N 40°15' E 024°11'310.5
2018-May-14 12:00N 40°17' E 024°07'6 5.3
2018-May-14 10:56N 40°18' E 023°60'510.8
2018-May-14 10:30N 40°16' E 024°05'510.8
2018-May-14 10:00N 40°13' E 024°11'5 9.9
2018-May-14 09:28N 40°09' E 024°16'510.5
2018-May-14 08:58N 40°14' E 024°12'510.1
2018-May-14 08:30N 40°17' E 024°07'2 0.1
2018-May-13 13:52N 40°16' E 024°06'411.2
2018-May-13 13:30N 40°13' E 024°10'611.1
2018-May-13 12:58N 40°10' E 024°16'7 9.7
2018-May-13 12:13N 40°15' E 024°10'310.4
2018-May-13 11:58N 40°17' E 024°07'3 1.4
2018-May-13 10:03N 40°14' E 024°09'110.9
2018-May-13 10:00N 40°14' E 024°09'710.9
2018-May-13 09:24N 40°10' E 024°16'5 8.3
2018-May-13 08:51N 40°13' E 024°12'410.7
2018-May-13 08:30N 40°16' E 024°09'610.7
2018-May-13 07:55N 40°18' E 024°01'4 0.2
2018-May-12 14:03N 40°16' E 024°06'110.7
2018-May-12 13:59N 40°15' E 024°06'611.2
2018-May-12 13:27N 40°12' E 024°13'2 5.0
2018-May-12 13:01N 40°11' E 024°15'6 9.8
2018-May-12 12:25N 40°15' E 024°11'0 0.0
2018-May-12 10:11N 40°15' E 024°10'2 8.4
2018-May-12 09:58N 40°14' E 024°12'610.3
2018-May-12 09:26N 40°10' E 024°17'7 9.4
2018-May-12 08:41N 40°15' E 024°11'1 6.3
2018-May-12 08:29N 40°16' E 024°10'3 0.1
2018-May-11 10:18N 40°15' E 024°06'310.8
2018-May-11 09:59N 40°13' E 024°10'611.0
2018-May-11 09:26N 40°10' E 024°16'3 6.4
2018-May-11 09:00N 40°11' E 024°13'510.6
2018-May-11 08:30N 40°16' E 024°10'  

Dump ship's entire track history